Time;durP1;ratioP1;P1;durP2;ratioP2;P2;SDS_P1;SDS_P2;PMS_P1;PMS_P2;Temp;Humidity;BMP_temperature;BMP_pressure;BME280_temperature;BME280_humidity;BME280_pressure;Samples;Min_cycle;Max_cycle;Signal;HPM_P1;HPM_P2
2024/03/31 00:00:38;;;;;;;61.40;10.80;;;;;;;16.02;45.89;98950.46;102608;1263;111918;-79
2024/03/31 00:03:58;;;;;;;60.40;11.00;;;;;;;15.97;46.29;98949.79;102628;1264;110321;-80
2024/03/31 00:06:58;;;;;;;59.20;11.70;;;;;;;15.90;46.52;98955.86;102630;1264;99259;-80
2024/03/31 00:09:58;;;;;;;50.20;10.60;;;;;;;15.87;46.59;98943.02;102615;1263;107271;-80
2024/03/31 00:12:58;;;;;;;54.40;10.30;;;;;;;15.84;46.83;98939.39;102657;1269;99214;-78
2024/03/31 00:15:58;;;;;;;52.30;11.50;;;;;;;15.82;46.82;98943.22;102650;1263;110778;-78
2024/03/31 00:18:58;;;;;;;57.80;10.90;;;;;;;15.78;46.99;98948.73;102657;1263;105901;-79
2024/03/31 00:21:58;;;;;;;52.90;10.20;;;;;;;15.75;47.24;98947.41;102593;1268;99063;-78
2024/03/31 00:24:58;;;;;;;51.40;9.50;;;;;;;15.71;47.51;98939.92;102612;1264;108486;-79
2024/03/31 00:27:58;;;;;;;53.40;10.10;;;;;;;15.66;47.61;98939.58;102655;1265;99195;-78
2024/03/31 00:31:03;;;;;;;44.10;10.30;;;;;;;15.65;47.83;98939.35;102567;1263;111927;-78
2024/03/31 00:34:03;;;;;;;49.60;9.70;;;;;;;15.62;47.97;98941.48;102639;1264;107742;-78
2024/03/31 00:37:05;;;;;;;45.30;9.30;;;;;;;15.59;48.09;98939.10;102727;1264;100727;-79
2024/03/31 00:40:04;;;;;;;47.50;9.70;;;;;;;15.56;48.39;98940.67;102846;1264;106870;-79
2024/03/31 00:43:04;;;;;;;45.90;8.90;;;;;;;15.54;48.45;98936.78;102833;1263;99228;-79
2024/03/31 00:46:04;;;;;;;45.00;9.50;;;;;;;15.53;48.61;98935.51;102632;1269;110679;-78
2024/03/31 00:49:04;;;;;;;44.70;8.80;;;;;;;15.51;48.99;98932.83;102566;1263;107229;-77
2024/03/31 00:52:04;;;;;;;50.80;11.00;;;;;;;15.49;49.14;98927.55;102671;1264;99084;-79
2024/03/31 00:55:04;;;;;;;47.50;8.70;;;;;;;15.46;49.19;98926.89;102634;1269;107293;-79
2024/03/31 00:58:05;;;;;;;47.60;8.40;;;;;;;15.44;49.53;98932.11;102619;1264;99180;-79
2024/03/31 01:01:05;;;;;;;46.70;9.00;;;;;;;15.42;49.53;98922.21;102683;1269;112495;-79
2024/03/31 01:04:05;;;;;;;47.40;9.10;;;;;;;15.41;49.82;98917.05;102644;1264;107403;-79
2024/03/31 01:06:59;;;;;;;51.60;8.40;;;;;;;15.39;50.22;98916.66;102706;1264;99083;-79
2024/03/31 01:09:47;;;;;;;43.20;8.40;;;;;;;15.39;50.35;98914.41;102609;1263;108018;-79
2024/03/31 01:12:28;;;;;;;40.80;8.20;;;;;;;15.37;50.25;98910.92;102560;1264;138080;-79
2024/03/31 01:15:30;;;;;;;;;;;;;;;15.35;50.49;98906.70;102604;1269;112280;-78
2024/03/31 01:18:29;;;;;;;;;;;;;;;15.34;50.74;98914.97;102478;1269;124573;-78
2024/03/31 01:21:35;;;;;;;45.60;8.10;;;;;;;15.31;50.99;98906.60;102645;1269;99658;-77
2024/03/31 01:24:36;;;;;;;38.20;7.40;;;;;;;15.30;51.01;98912.98;102511;1267;137807;-78
2024/03/31 01:27:36;;;;;;;43.30;8.80;;;;;;;15.29;51.20;98908.67;102618;1264;99183;-78
2024/03/31 01:30:37;;;;;;;39.10;8.00;;;;;;;15.29;51.29;98911.30;102527;1264;138572;-77
2024/03/31 01:33:38;;;;;;;44.50;8.00;;;;;;;15.28;51.44;98908.79;102545;1270;107808;-78
2024/03/31 01:36:38;;;;;;;40.50;7.60;;;;;;;15.26;51.57;98904.87;102517;1264;138230;-78
2024/03/31 01:39:38;;;;;;;45.50;7.50;;;;;;;15.24;51.70;98906.42;102656;1263;107552;-78
2024/03/31 01:42:38;;;;;;;41.20;7.90;;;;;;;15.22;51.91;98908.49;102519;1263;138464;-77
2024/03/31 01:45:39;;;;;;;42.00;7.60;;;;;;;15.20;51.91;98905.50;102547;1269;112242;-77
2024/03/31 01:48:40;;;;;;;36.90;7.10;;;;;;;15.20;52.18;98914.73;102442;1270;138776;-77
2024/03/31 01:51:41;;;;;;;42.90;7.00;;;;;;;15.20;52.26;98910.06;102547;1263;99245;-77
2024/03/31 01:54:42;;;;;;;36.80;7.60;;;;;;;15.20;52.34;98904.63;102467;1264;138807;-78
2024/03/31 01:57:42;;;;;;;43.60;7.40;;;;;;;15.19;52.40;98906.63;102627;1265;99176;-77
2024/03/31 02:03:41;;;;;;;38.10;6.30;;;;;;;15.17;52.70;98905.40;102110;1265;126050;-76
2024/03/31 02:06:41;;;;;;;28.80;7.20;;;;;;;15.19;52.75;98900.67;102563;1262;138462;-76
2024/03/31 02:09:41;;;;;;;39.90;6.70;;;;;;;15.19;52.80;98903.09;102765;1260;106942;-77
2024/03/31 02:12:41;;;;;;;39.50;6.50;;;;;;;15.18;52.85;98896.16;102677;1262;138053;-77
2024/03/31 02:15:41;;;;;;;40.40;6.70;;;;;;;15.19;52.82;98894.38;102810;1262;111652;-78
2024/03/31 02:18:42;;;;;;;32.90;7.20;;;;;;;15.19;52.88;98896.68;102625;1260;137868;-78
2024/03/31 02:21:41;;;;;;;31.50;7.30;;;;;;;15.18;53.02;98898.98;102776;1264;99153;-78
2024/03/31 02:24:41;;;;;;;37.50;7.90;;;;;;;15.16;52.91;98899.64;102644;1261;137659;-80
2024/03/31 02:27:41;;;;;;;34.80;6.80;;;;;;;15.16;52.92;98903.31;102762;1261;99137;-81
2024/03/31 02:30:41;;;;;;;30.90;7.00;;;;;;;15.16;53.21;98896.02;102705;1262;138912;-80
2024/03/31 02:33:41;;;;;;;34.00;6.50;;;;;;;15.16;53.16;98893.77;102695;1267;105530;-79
2024/03/31 02:36:41;;;;;;;35.40;6.00;;;;;;;15.14;53.19;98892.45;102699;1268;138262;-77
2024/03/31 02:39:42;;;;;;;32.50;5.90;;;;;;;15.15;53.14;98892.55;102792;1262;108158;-77
2024/03/31 02:42:43;;;;;;;32.00;5.30;;;;;;;15.14;53.17;98890.75;102727;1265;138315;-77
2024/03/31 02:45:43;;;;;;;33.10;5.70;;;;;;;15.11;53.34;98887.06;102855;1267;111731;-78
2024/03/31 02:48:43;;;;;;;34.10;5.60;;;;;;;15.07;53.56;98887.16;103684;1262;137306;-75
2024/03/31 02:51:44;;;;;;;20.50;5.30;;;;;;;15.04;53.48;98887.21;103792;1267;96858;-78
2024/03/31 02:54:44;;;;;;;28.10;5.70;;;;;;;15.00;53.70;98885.55;103564;1262;137589;-78
2024/03/31 02:57:44;;;;;;;35.70;6.10;;;;;;;14.96;53.93;98887.44;103085;1262;99061;-76
2024/03/31 03:00:45;;;;;;;35.20;6.40;;;;;;;14.92;53.98;98883.71;102738;1268;137722;-80
2024/03/31 03:03:47;;;;;;;31.70;5.70;;;;;;;14.87;54.28;98889.99;102711;1264;107043;-79
2024/03/31 03:06:47;;;;;;;35.70;6.60;;;;;;;14.84;54.28;98887.27;102536;1269;139050;-77
2024/03/31 03:09:49;;;;;;;30.80;5.40;;;;;;;14.80;54.37;98882.61;102711;1267;107959;-77
2024/03/31 03:12:49;;;;;;;30.70;5.50;;;;;;;14.76;54.70;98880.64;102507;1263;138120;-78
2024/03/31 03:15:49;;;;;;;27.40;5.20;;;;;;;14.74;54.63;98880.08;102648;1265;112445;-77
2024/03/31 03:18:50;;;;;;;30.60;6.70;;;;;;;14.72;54.76;98878.66;102519;1264;138677;-78
2024/03/31 03:21:50;;;;;;;30.30;5.00;;;;;;;14.70;54.77;98874.25;102672;1267;99913;-78
2024/03/31 03:24:51;;;;;;;26.40;5.20;;;;;;;14.67;54.83;98876.58;102629;1267;108338;-77
2024/03/31 03:27:51;;;;;;;36.60;5.40;;;;;;;14.65;55.05;98881.77;102696;1267;99172;-77
2024/03/31 03:30:51;;;;;;;26.90;5.20;;;;;;;14.62;55.18;98872.06;102634;1265;114722;-77
2024/03/31 03:33:54;;;;;;;35.30;5.70;;;;;;;14.57;55.17;98868.16;102573;1265;107467;-77
2024/03/31 03:36:54;;;;;;;38.60;5.80;;;;;;;14.57;55.21;98868.55;102670;1269;99684;-77
2024/03/31 03:39:57;;;;;;;24.60;4.90;;;;;;;14.55;55.46;98863.95;102653;1267;107697;-79
2024/03/31 03:42:58;;;;;;;22.70;5.20;;;;;;;14.52;55.51;98863.83;102651;1264;99260;-80
2024/03/31 03:46:02;;;;;;;28.60;5.40;;;;;;;14.50;55.59;98863.21;102641;1265;113049;-80
2024/03/31 03:49:02;;;;;;;27.80;5.70;;;;;;;14.48;55.92;98857.97;102571;1269;107696;-80
2024/03/31 03:52:03;;;;;;;25.20;5.30;;;;;;;14.46;56.00;98863.37;102520;1265;99848;-78
2024/03/31 03:55:04;;;;;;;21.70;4.20;;;;;;;14.43;56.33;98855.33;102543;1264;107662;-79
2024/03/31 03:58:05;;;;;;;21.20;4.60;;;;;;;14.41;56.34;98860.73;102513;1269;99048;-79
2024/03/31 04:01:11;;;;;;;27.20;4.80;;;;;;;14.38;56.54;98853.56;102596;1267;114171;-79
2024/03/31 04:04:11;;;;;;;31.00;5.10;;;;;;;14.38;56.69;98849.60;102467;1267;108354;-78
2024/03/31 04:07:12;;;;;;;22.10;5.00;;;;;;;14.36;56.54;98846.16;102576;1267;99227;-78
2024/03/31 04:10:13;;;;;;;22.40;5.50;;;;;;;14.37;56.81;98851.93;102595;1270;106125;-78
2024/03/31 04:13:13;;;;;;;26.00;4.90;;;;;;;14.36;56.88;98850.55;102662;1265;99205;-78
2024/03/31 04:16:14;;;;;;;26.00;4.80;;;;;;;14.36;56.75;98857.40;102638;1264;112613;-79
2024/03/31 04:19:15;;;;;;;19.30;4.30;;;;;;;14.35;56.82;98855.36;102527;1263;107727;-77
2024/03/31 04:22:16;;;;;;;23.70;5.20;;;;;;;14.33;56.95;98852.52;102553;1269;100875;-78
2024/03/31 04:25:16;;;;;;;24.40;4.90;;;;;;;14.32;57.11;98857.85;102586;1270;107271;-78
2024/03/31 04:28:17;;;;;;;22.70;4.50;;;;;;;14.30;57.13;98848.89;102628;1271;99172;-78
2024/03/31 04:31:17;;;;;;;20.80;4.30;;;;;;;14.29;57.23;98856.80;102631;1267;113053;-78
2024/03/31 04:34:17;;;;;;;29.10;5.40;;;;;;;14.30;57.40;98852.40;102552;1267;107518;-76
2024/03/31 04:37:20;;;;;;;19.10;4.30;;;;;;;14.30;57.25;98850.98;102597;1270;99299;-79
2024/03/31 04:40:21;;;;;;;21.90;4.70;;;;;;;14.34;57.31;98847.71;102583;1264;108045;-77
2024/03/31 04:43:22;;;;;;;20.60;4.50;;;;;;;14.36;57.18;98846.20;102569;1271;99169;-78
2024/03/31 04:46:22;;;;;;;19.30;4.70;;;;;;;14.38;57.31;98846.76;102490;1268;111838;-77
2024/03/31 04:49:24;;;;;;;18.30;4.80;;;;;;;14.42;57.23;98839.30;102492;1270;107736;-80
2024/03/31 04:52:23;;;;;;;20.30;4.60;;;;;;;14.47;57.08;98842.11;102595;1270;99118;-79
2024/03/31 04:55:24;;;;;;;22.80;4.60;;;;;;;14.55;56.96;98844.20;102544;1264;107944;-79
2024/03/31 04:58:24;;;;;;;21.30;4.60;;;;;;;14.63;56.76;98839.23;102491;1269;99345;-80
2024/03/31 05:01:25;;;;;;;23.00;4.60;;;;;;;14.73;56.52;98846.55;102410;1270;115050;-80
2024/03/31 05:04:24;;;;;;;18.50;4.30;;;;;;;14.85;56.41;98844.67;102463;1270;107923;-79
2024/03/31 05:07:25;;;;;;;16.80;3.90;;;;;;;14.95;56.20;98841.64;102575;1265;99248;-79
2024/03/31 05:10:26;;;;;;;21.60;4.40;;;;;;;15.03;55.86;98843.34;102535;1270;108679;-79
2024/03/31 05:13:27;;;;;;;23.10;4.60;;;;;;;15.16;55.65;98840.30;102590;1270;99180;-78
2024/03/31 05:16:31;;;;;;;20.50;4.20;;;;;;;15.28;55.33;98841.35;102504;1267;111643;-77
2024/03/31 05:19:32;;;;;;;21.10;4.30;;;;;;;15.40;54.99;98841.09;95054;1264;10222139;-77
2024/03/31 05:22:33;;;;;;;18.10;4.00;;;;;;;15.52;54.74;98845.89;102572;1264;107674;-78
2024/03/31 05:25:33;;;;;;;20.50;4.50;;;;;;;15.62;54.45;98847.96;102571;1265;99276;-78
2024/03/31 05:28:34;;;;;;;22.20;4.10;;;;;;;15.70;54.23;98841.73;102636;1267;112819;-78
2024/03/31 05:31:50;;;;;;;19.30;4.40;;;;;;;15.85;53.95;98839.05;102622;1268;107076;-77
2024/03/31 05:35:05;;;;;;;18.60;4.00;;;;;;;16.05;53.46;98848.55;102656;1269;99058;-78
2024/03/31 05:38:06;;;;;;;21.20;4.20;;;;;;;16.24;53.14;98852.34;102705;1267;107685;-76
2024/03/31 05:41:12;;;;;;;18.60;4.10;;;;;;;16.36;52.62;98840.34;102711;1264;99232;-79
2024/03/31 05:44:13;;;;;;;18.10;4.00;;;;;;;16.42;52.49;98831.63;102594;1270;112794;-78
2024/03/31 05:47:14;;;;;;;17.30;4.80;;;;;;;16.53;52.05;98838.85;102621;1270;107668;-78
2024/03/31 05:50:15;;;;;;;19.20;4.50;;;;;;;16.63;51.93;98833.27;102645;1269;99631;-66
2024/03/31 05:53:16;;;;;;;15.00;4.30;;;;;;;16.70;51.69;98835.94;102483;1267;108501;-66
2024/03/31 05:56:16;;;;;;;19.20;4.20;;;;;;;16.71;51.39;98829.01;102461;1270;99215;-66
2024/03/31 05:59:18;;;;;;;16.30;4.10;;;;;;;16.68;51.47;98821.52;102513;1269;111918;-65
2024/03/31 06:02:17;;;;;;;17.30;4.00;;;;;;;16.70;51.49;98821.89;102472;1267;107653;-65
2024/03/31 06:05:18;;;;;;;17.90;3.90;;;;;;;17.00;51.17;98829.95;102634;1268;99323;-65
2024/03/31 06:08:20;;;;;;;19.10;3.80;;;;;;;17.43;50.33;98822.24;104091;1263;108019;-66
2024/03/31 06:11:20;;;;;;;13.60;3.60;;;;;;;17.80;49.38;98819.88;102859;1264;99072;-78
2024/03/31 06:14:20;;;;;;;17.90;3.80;;;;;;;18.04;48.92;98822.54;102614;1268;111974;-79
2024/03/31 06:17:21;;;;;;;13.60;3.60;;;;;;;18.05;48.68;98816.93;102713;1269;107315;-80
2024/03/31 06:20:22;;;;;;;20.20;3.80;;;;;;;17.89;48.36;98819.80;102510;1268;99175;-78
2024/03/31 06:23:23;;;;;;;18.60;3.70;;;;;;;17.65;48.73;98821.83;102485;1268;106741;-79
2024/03/31 06:26:24;;;;;;;18.40;3.80;;;;;;;17.44;49.07;98824.20;102514;1263;99258;-79
2024/03/31 06:29:25;;;;;;;14.50;4.10;;;;;;;17.24;49.55;98828.55;102596;1267;111986;-79
2024/03/31 06:32:25;;;;;;;17.40;3.90;;;;;;;17.03;50.01;98825.20;102467;1270;105789;-81
2024/03/31 06:35:26;;;;;;;18.00;3.70;;;;;;;16.88;50.48;98827.06;102618;1268;99688;-78
2024/03/31 06:38:27;;;;;;;13.70;4.00;;;;;;;16.76;50.88;98830.30;102690;1266;108323;-82
2024/03/31 06:41:28;;;;;;;20.80;4.10;;;;;;;16.69;51.09;98834.21;102618;1268;99247;-83
2024/03/31 06:44:30;;;;;;;12.60;3.50;;;;;;;16.67;51.21;98830.89;102597;1269;111354;-78
2024/03/31 06:47:25;;;;;;;19.40;3.70;;;;;;;16.66;51.41;98822.33;102571;1264;106909;-85
2024/03/31 06:50:25;;;;;;;14.80;3.30;;;;;;;16.72;51.41;98819.92;102690;1264;99055;-82
2024/03/31 06:53:24;;;;;;;11.70;3.60;;;;;;;16.85;51.22;98818.38;102560;1267;108017;-76
2024/03/31 06:56:25;;;;;;;15.70;3.50;;;;;;;17.00;51.06;98822.08;102475;1268;99249;-73
2024/03/31 06:59:26;;;;;;;19.10;4.10;;;;;;;17.26;50.62;98814.47;102608;1264;111152;-73
2024/03/31 07:02:26;;;;;;;15.70;3.60;;;;;;;17.47;50.21;98810.77;102326;1264;107910;-79
2024/03/31 07:05:27;;;;;;;16.50;3.20;;;;;;;17.67;49.76;98805.27;102490;1264;99261;-76
2024/03/31 07:08:28;;;;;;;16.70;3.30;;;;;;;17.78;49.48;98807.86;102466;1264;106196;-74
2024/03/31 07:11:29;;;;;;;22.40;3.60;;;;;;;18.13;49.09;98810.89;102534;1269;99142;-83
2024/03/31 07:14:29;;;;;;;17.70;3.70;;;;;;;18.99;47.70;98806.27;102624;1267;112725;-84
2024/03/31 07:17:33;;;;;;;14.70;3.50;;;;;;;19.70;46.30;98801.75;102597;1267;107640;-76
2024/03/31 07:20:33;;;;;;;16.70;4.00;;;;;;;19.92;46.06;98797.73;102582;1267;99576;-84
2024/03/31 07:23:33;;;;;;;19.10;3.50;;;;;;;20.54;44.68;98793.61;102486;1267;106099;-81
2024/03/31 07:26:33;;;;;;;11.30;3.40;;;;;;;21.27;43.40;98795.84;102558;1267;100392;-63
2024/03/31 07:29:34;;;;;;;13.60;3.40;;;;;;;21.96;41.52;98785.06;102743;1264;113899;-61
2024/03/31 07:32:34;;;;;;;12.10;3.10;;;;;;;22.79;40.19;98773.55;102656;1264;108757;-61
2024/03/31 07:35:34;;;;;;;14.50;3.30;;;;;;;23.58;38.38;98769.79;102671;1264;99487;-70
2024/03/31 07:38:35;;;;;;;19.80;3.30;;;;;;;23.74;38.08;98765.19;102549;1264;107630;-77
2024/03/31 07:41:36;;;;;;;16.90;3.10;;;;;;;24.38;36.61;98769.35;102614;1267;99173;-75
2024/03/31 07:44:37;;;;;;;8.40;2.90;;;;;;;25.25;35.45;98771.88;102809;1264;112561;-77
2024/03/31 07:47:37;;;;;;;15.50;3.40;;;;;;;26.02;34.75;98754.95;102600;1264;107373;-77
2024/03/31 07:50:38;;;;;;;11.90;3.30;;;;;;;26.68;32.82;98762.59;102701;1268;99261;-77
2024/03/31 07:53:39;;;;;;;14.50;3.10;;;;;;;26.99;32.21;98756.98;102631;1264;108254;-77
2024/03/31 07:56:39;;;;;;;12.10;3.00;;;;;;;27.22;32.28;98755.14;102563;1264;99251;-77
2024/03/31 07:59:40;;;;;;;16.70;3.00;;;;;;;27.31;31.57;98755.84;102601;1264;113077;-77
2024/03/31 08:02:41;;;;;;;11.90;3.00;;;;;;;27.44;30.94;98757.57;102536;1267;107089;-77
2024/03/31 08:05:41;;;;;;;12.30;3.20;;;;;;;27.86;30.36;98754.58;102538;1270;99500;-76
2024/03/31 08:08:41;;;;;;;14.00;3.00;;;;;;;28.07;29.53;98758.30;102453;1270;107051;-76
2024/03/31 08:11:41;;;;;;;11.30;3.00;;;;;;;28.18;28.91;98752.54;102584;1263;99071;-77
2024/03/31 08:14:43;;;;;;;16.00;3.30;;;;;;;28.20;28.85;98750.66;102626;1265;112592;-76
2024/03/31 08:17:42;;;;;;;12.00;3.10;;;;;;;28.21;29.02;98741.75;102612;1267;107956;-76
2024/03/31 08:20:44;;;;;;;10.90;2.90;;;;;;;28.21;29.39;98742.17;102691;1270;99226;-76
2024/03/31 08:23:44;;;;;;;12.50;3.10;;;;;;;28.18;29.01;98742.93;103438;1267;106676;-77
2024/03/31 08:26:44;;;;;;;9.70;2.90;;;;;;;28.20;28.87;98749.42;103467;1264;99323;-76
2024/03/31 08:29:44;;;;;;;13.70;3.10;;;;;;;28.29;29.17;98735.17;103253;1264;111461;-76
2024/03/31 08:32:44;;;;;;;13.60;3.30;;;;;;;28.55;28.81;98734.74;102849;1264;106882;-77
2024/03/31 08:35:45;;;;;;;12.00;2.80;;;;;;;28.54;28.46;98729.58;102660;1267;99364;-77
2024/03/31 08:38:45;;;;;;;11.70;3.00;;;;;;;28.44;28.87;98723.02;102602;1269;106874;-77
2024/03/31 08:41:54;;;;;;;10.80;3.00;;;;;;;28.19;28.89;98726.11;102643;1270;99214;-77
2024/03/31 08:44:56;;;;;;;15.10;3.10;;;;;;;27.83;28.52;98731.14;102629;1268;112950;-78
2024/03/31 08:48:03;;;;;;;11.00;2.90;;;;;;;27.43;29.19;98734.79;102605;1270;107598;-76
2024/03/31 08:51:03;;;;;;;;;;;;;;;27.24;29.61;98731.13;102677;1267;99189;-78
2024/03/31 08:54:04;;;;;;;11.30;3.00;;;;;;;26.73;29.68;98717.02;102589;1264;107835;-77
2024/03/31 08:57:04;;;;;;;10.00;3.00;;;;;;;26.17;30.13;98718.00;102528;1269;99086;-77
2024/03/31 09:00:05;;;;;;;9.20;3.00;;;;;;;25.84;30.79;98718.02;102610;1267;111997;-77
2024/03/31 09:03:06;;;;;;;13.90;3.40;;;;;;;25.62;31.15;98715.01;102498;1267;106878;-76
2024/03/31 09:06:07;;;;;;;17.90;2.90;;;;;;;25.25;31.46;98720.11;102579;1264;99692;-76
2024/03/31 09:09:10;;;;;;;9.50;2.70;;;;;;;24.86;31.84;98725.01;102624;1263;108001;-75
2024/03/31 09:12:11;;;;;;;13.90;3.10;;;;;;;24.63;32.57;98716.64;102681;1264;99131;-75
2024/03/31 09:15:15;;;;;;;8.90;2.70;;;;;;;24.54;32.90;98727.08;102606;1264;114684;-76
2024/03/31 09:18:16;;;;;;;11.30;2.60;;;;;;;24.41;32.94;98720.75;102645;1263;107724;-76
2024/03/31 09:21:18;;;;;;;8.20;3.20;;;;;;;24.50;33.05;98710.27;102686;1264;99437;-76
2024/03/31 09:24:19;;;;;;;15.10;2.90;;;;;;;25.01;32.55;98703.72;102698;1263;107643;-75
2024/03/31 09:27:20;;;;;;;14.20;3.20;;;;;;;25.65;32.03;98696.11;102732;1263;99071;-76
2024/03/31 09:30:21;;;;;;;11.40;3.10;;;;;;;26.27;31.86;98693.10;102706;1263;112992;-76
2024/03/31 09:33:22;;;;;;;8.90;2.80;;;;;;;26.74;31.05;98697.11;102663;1265;108055;-75
2024/03/31 09:36:23;;;;;;;13.30;2.70;;;;;;;27.11;30.46;98684.52;102743;1267;99133;-76
2024/03/31 09:39:24;;;;;;;14.20;3.00;;;;;;;27.41;29.88;98682.45;102697;1264;107936;-76
2024/03/31 09:42:26;;;;;;;11.90;3.00;;;;;;;27.71;29.46;98681.41;102765;1266;99163;-76
2024/03/31 09:45:27;;;;;;;11.30;3.00;;;;;;;27.93;29.14;98674.89;102722;1266;112616;-76
2024/03/31 09:48:32;;;;;;;9.60;2.80;;;;;;;28.25;27.78;98687.47;102708;1266;108657;-76
2024/03/31 09:51:39;;;;;;;12.90;3.20;;;;;;;28.51;28.26;98675.11;102748;1266;99241;-77
2024/03/31 09:54:49;;;;;;;11.40;3.10;;;;;;;29.06;28.34;98667.13;102593;1263;138088;-76
2024/03/31 09:57:56;;;;;;;8.40;2.90;;;;;;;29.62;27.12;98654.92;102663;1266;99184;-78
2024/03/31 10:00:57;;;;;;;13.30;2.80;;;;;;;29.98;25.71;98657.59;102612;1263;139376;-77
2024/03/31 10:04:04;;;;;;;10.90;3.00;;;;;;;29.92;25.38;98658.05;102652;1267;107300;-77
2024/03/31 10:07:05;;;;;;;8.80;2.60;;;;;;;29.96;25.32;98657.21;102555;1264;138602;-77
2024/03/31 10:10:08;;;;;;;10.90;2.40;;;;;;;29.97;24.89;98641.76;102687;1263;106332;-80
2024/03/31 10:13:10;;;;;;;11.50;2.50;;;;;;;29.90;24.84;98649.67;102614;1266;137675;-76
2024/03/31 10:16:14;;;;;;;14.90;2.90;;;;;;;29.71;24.46;98631.17;102743;1266;111914;-78
2024/03/31 10:19:15;;;;;;;18.10;3.70;;;;;;;30.02;24.80;98630.33;102580;1264;138349;-77
2024/03/31 10:22:17;;;;;;;13.20;3.10;;;;;;;30.02;22.99;98636.90;102705;1266;99178;-77
2024/03/31 10:25:19;;;;;;;11.90;2.80;;;;;;;29.84;23.43;98637.11;102509;1266;138692;-78
2024/03/31 10:28:21;;;;;;;11.50;2.80;;;;;;;29.60;23.14;98642.11;102757;1266;99201;-78
2024/03/31 10:31:21;;;;;;;15.90;2.90;;;;;;;29.34;23.76;98650.17;102646;1266;138009;-76
2024/03/31 10:34:22;;;;;;;15.50;3.00;;;;;;;29.24;24.34;98636.63;102678;1263;108179;-76
2024/03/31 10:37:24;;;;;;;18.10;3.00;;;;;;;29.35;23.51;98637.33;102625;1267;139435;-79
2024/03/31 10:40:26;;;;;;;14.50;3.30;;;;;;;29.09;23.31;98646.56;102696;1264;107669;-79
2024/03/31 10:43:27;;;;;;;16.50;4.10;;;;;;;28.83;24.11;98632.94;102614;1267;138049;-77
2024/03/31 10:46:28;;;;;;;17.20;3.20;;;;;;;28.97;24.79;98628.93;102731;1267;112288;-79
2024/03/31 10:49:42;;;;;;;13.10;3.40;;;;;;;28.88;24.33;98630.12;102606;1262;138130;-78
2024/03/31 10:52:45;;;;;;;15.40;3.40;;;;;;;28.73;24.72;98627.37;102743;1263;99055;-78
2024/03/31 10:55:53;;;;;;;18.00;3.50;;;;;;;28.42;24.28;98636.09;102535;1263;138060;-78
2024/03/31 10:58:52;;;;;;;;;;;;;;;27.85;25.17;98623.77;102601;1267;99164;-77
2024/03/31 11:01:54;;;;;;;17.80;3.80;;;;;;;27.36;25.67;98622.78;102563;1264;124147;-77
2024/03/31 11:05:09;;;;;;;18.40;3.30;;;;;;;26.91;26.28;98628.42;102623;1262;106973;-77
2024/03/31 11:08:10;;;;;;;14.50;3.30;;;;;;;26.43;26.31;98626.92;103998;1262;138114;-77
2024/03/31 11:11:11;;;;;;;14.90;3.10;;;;;;;26.12;26.80;98625.46;104107;1262;107400;-77
2024/03/31 11:14:12;;;;;;;16.90;4.00;;;;;;;25.92;27.34;98611.66;102732;1263;138119;-77
2024/03/31 11:17:13;;;;;;;12.80;3.00;;;;;;;25.84;27.96;98595.05;102710;1267;112221;-75
2024/03/31 11:20:16;;;;;;;15.30;3.30;;;;;;;25.86;27.74;98601.39;102586;1264;138413;-76
2024/03/31 11:23:18;;;;;;;19.10;3.90;;;;;;;25.76;27.88;98598.71;102740;1263;99162;-76
2024/03/31 11:26:19;;;;;;;17.50;4.20;;;;;;;25.80;27.85;98585.94;102597;1262;137869;-76
2024/03/31 11:29:20;;;;;;;12.60;3.40;;;;;;;25.96;28.00;98576.19;102748;1264;99178;-76
2024/03/31 11:32:23;;;;;;;17.90;2.90;;;;;;;26.08;28.26;98566.60;102584;1264;138193;-75
2024/03/31 11:35:25;;;;;;;16.30;3.30;;;;;;;26.23;28.32;98556.23;102586;1263;107863;-76
2024/03/31 11:38:26;;;;;;;16.70;3.70;;;;;;;26.35;28.29;98554.17;102557;1264;138388;-76
2024/03/31 11:41:27;;;;;;;17.90;3.20;;;;;;;26.48;28.51;98551.44;102679;1262;107167;-76
2024/03/31 11:44:28;;;;;;;22.90;3.60;;;;;;;26.61;28.17;98551.19;102635;1262;137016;-76
2024/03/31 11:47:29;;;;;;;12.10;3.10;;;;;;;26.63;27.87;98554.48;102689;1266;112289;-76
2024/03/31 11:50:31;;;;;;;20.20;4.40;;;;;;;26.63;27.50;98557.63;102563;1267;137979;-76
2024/03/31 11:53:32;;;;;;;24.80;3.90;;;;;;;26.65;26.69;98547.67;102755;1267;99230;-76
2024/03/31 11:56:33;;;;;;;21.20;4.50;;;;;;;26.80;26.83;98546.52;102554;1264;138136;-76
2024/03/31 11:59:34;;;;;;;24.70;4.50;;;;;;;26.99;25.99;98546.35;102566;1266;99200;-76
2024/03/31 12:02:35;;;;;;;45.40;5.90;;;;;;;26.98;24.61;98541.23;102488;1267;137962;-77
2024/03/31 12:05:36;;;;;;;41.90;6.20;;;;;;;26.85;23.54;98548.65;102595;1264;107367;-77
2024/03/31 12:08:37;;;;;;;47.60;7.00;;;;;;;26.74;23.87;98548.71;102505;1266;140525;-77
2024/03/31 12:11:40;;;;;;;39.30;5.40;;;;;;;26.60;23.65;98542.16;102615;1266;107874;-76
2024/03/31 12:14:42;;;;;;;41.40;6.80;;;;;;;26.48;23.92;98536.05;102481;1264;138597;-77
2024/03/31 12:17:43;;;;;;;34.50;5.90;;;;;;;26.42;23.90;98532.70;102756;1263;112950;-76
2024/03/31 12:20:43;;;;;;;40.20;7.00;;;;;;;26.34;23.95;98536.52;102624;1264;138438;-77
2024/03/31 12:23:44;;;;;;;30.80;5.70;;;;;;;26.29;24.22;98522.94;102753;1262;99151;-76
2024/03/31 12:26:45;;;;;;;35.20;6.20;;;;;;;26.25;24.39;98524.27;102507;1262;137981;-76
2024/03/31 12:29:50;;;;;;;52.10;7.30;;;;;;;26.16;24.21;98523.39;102715;1266;99184;-77
2024/03/31 12:32:51;;;;;;;47.70;6.70;;;;;;;26.11;24.69;98515.70;102598;1263;138717;-77
2024/03/31 12:35:53;;;;;;;41.20;6.60;;;;;;;26.10;24.22;98536.61;102668;1264;106592;-75
2024/03/31 12:38:57;;;;;;;38.60;6.10;;;;;;;26.11;24.90;98516.35;102594;1264;137887;-75
2024/03/31 12:41:58;;;;;;;36.10;6.00;;;;;;;26.20;25.03;98512.41;102639;1266;107769;-76
2024/03/31 12:45:05;;;;;;;45.00;7.30;;;;;;;26.24;24.66;98518.67;102655;1264;99151;-77
2024/03/31 12:48:08;;;;;;;62.20;9.60;;;;;;;26.10;24.35;98520.74;102715;1264;113112;-77
2024/03/31 12:51:08;;;;;;;54.80;8.50;;;;;;;25.88;24.01;98514.63;102705;1266;107669;-75
2024/03/31 12:54:09;;;;;;;57.00;8.80;;;;;;;25.74;24.71;98500.02;102723;1264;99182;-76
2024/03/31 12:57:10;;;;;;;58.50;8.00;;;;;;;25.66;24.37;98526.03;102705;1264;108022;-77
2024/03/31 13:00:13;;;;;;;48.00;8.30;;;;;;;25.56;24.78;98529.52;102606;1266;99167;-76
2024/03/31 13:03:17;;;;;;;44.80;8.20;;;;;;;25.53;24.65;98513.67;102622;1262;112191;-76
2024/03/31 13:06:18;;;;;;;62.60;7.90;;;;;;;25.52;24.61;98513.26;102466;1270;108212;-76
2024/03/31 13:09:19;;;;;;;46.60;7.40;;;;;;;25.51;24.83;98500.42;102479;1268;99188;-74
2024/03/31 13:12:20;;;;;;;59.30;8.60;;;;;;;25.50;24.03;98501.09;102535;1265;107786;-75
2024/03/31 13:15:21;;;;;;;59.90;8.60;;;;;;;25.50;24.25;98517.86;102529;1264;99213;-75
2024/03/31 13:18:22;;;;;;;64.50;9.90;;;;;;;25.57;24.70;98492.96;102557;1267;112666;-57
2024/03/31 13:21:22;;;;;;;55.30;8.60;;;;;;;25.72;24.80;98494.20;103040;1263;107646;-59
2024/03/31 13:24:24;;;;;;;70.40;9.30;;;;;;;25.87;24.34;98485.83;102661;1269;99184;-58
2024/03/31 13:27:24;;;;;;;71.30;10.20;;;;;;;25.99;23.66;98525.55;102788;1266;107046;-59
2024/03/31 13:30:25;;;;;;;71.70;11.00;;;;;;;25.97;23.89;98497.88;102742;1267;99173;-58
2024/03/31 13:33:25;;;;;;;67.70;9.70;;;;;;;26.01;23.60;98500.67;102610;1267;113145;-63
2024/03/31 13:36:25;;;;;;;65.90;10.00;;;;;;;25.97;23.94;98493.10;102619;1267;107339;-66
2024/03/31 13:39:26;;;;;;;59.20;8.80;;;;;;;25.95;24.02;98484.29;102771;1269;99283;-66
2024/03/31 13:42:26;;;;;;;75.40;9.80;;;;;;;25.88;24.10;98478.98;102756;1265;108259;-68
2024/03/31 13:45:29;;;;;;;62.00;9.30;;;;;;;25.82;24.42;98485.42;102579;1269;99176;-68
2024/03/31 13:48:30;;;;;;;59.50;9.50;;;;;;;25.81;24.64;98479.83;102770;1264;111797;-68